Time;durP1;ratioP1;P1;durP2;ratioP2;P2;SDS_P1;SDS_P2;PMS_P1;PMS_P2;Temp;Humidity;BMP_temperature;BMP_pressure;BME280_temperature;BME280_humidity;BME280_pressure;Samples;Min_cycle;Max_cycle;Signal;HPM_P1;HPM_P2
2021/03/12 00:00:14;;;;;;;3.67;0.63;;;4.90;99.90;;;;;;5034061;28;20099;-69
2021/03/12 00:02:58;;;;;;;4.75;1.00;;;4.90;99.90;;;;;;5030043;28;20136;-70
2021/03/12 00:05:54;;;;;;;5.22;0.73;;;5.00;99.90;;;;;;5018741;28;20368;-70
2021/03/12 00:08:41;;;;;;;10.82;0.90;;;5.10;99.90;;;;;;5011745;28;20088;-70
2021/03/12 00:11:25;;;;;;;4.22;0.65;;;5.10;99.90;;;;;;5030203;28;20118;-70
2021/03/12 00:14:10;;;;;;;5.03;0.60;;;5.20;99.90;;;;;;5034119;28;20045;-70
2021/03/12 00:16:54;;;;;;;4.60;0.80;;;5.20;99.90;;;;;;5024480;28;20517;-70
2021/03/12 00:19:39;;;;;;;6.57;1.52;;;5.20;99.90;;;;;;5025210;28;20121;-70
2021/03/12 00:22:23;;;;;;;8.23;1.20;;;5.20;99.90;;;;;;5019263;28;20426;-70
2021/03/12 00:25:10;;;;;;;7.10;0.90;;;5.10;99.90;;;;;;5021142;28;20103;-71
2021/03/12 00:27:54;;;;;;;3.75;0.70;;;5.10;99.90;;;;;;5029767;28;20144;-70
2021/03/12 00:30:39;;;;;;;4.38;0.70;;;5.20;99.90;;;;;;5025172;28;20064;-70
2021/03/12 00:33:27;;;;;;;9.50;0.70;;;5.30;99.90;;;;;;5028565;28;20133;-70
2021/03/12 00:36:12;;;;;;;4.13;0.68;;;5.30;99.90;;;;;;5028204;28;20088;-71
2021/03/12 00:38:56;;;;;;;7.07;0.90;;;5.40;99.90;;;;;;5025400;28;20108;-70
2021/03/12 00:41:41;;;;;;;2.72;0.50;;;5.40;99.90;;;;;;5019405;28;20413;-70
2021/03/12 00:44:25;;;;;;;7.53;1.02;;;5.50;99.90;;;;;;5016962;28;20576;-70
2021/03/12 00:47:10;;;;;;;7.20;0.82;;;5.40;99.90;;;;;;5020053;28;20045;-70
2021/03/12 00:49:54;;;;;;;2.20;0.57;;;5.40;99.90;;;;;;5022288;28;20512;-70
2021/03/12 00:52:38;;;;;;;5.10;0.77;;;5.50;99.90;;;;;;5024181;28;20043;-70
2021/03/12 00:55:22;;;;;;;3.95;0.82;;;5.50;99.90;;;;;;5019613;28;20061;-70
2021/03/12 00:58:08;;;;;;;4.43;0.80;;;5.50;99.90;;;;;;5017330;28;20045;-71
2021/03/12 01:00:52;;;;;;;6.22;0.85;;;5.50;99.90;;;;;;5020778;28;20041;-71
2021/03/12 01:03:37;;;;;;;4.60;0.63;;;5.40;99.90;;;;;;5019203;28;20056;-71
2021/03/12 01:06:21;;;;;;;6.85;0.88;;;5.40;99.90;;;;;;5014369;28;20088;-70
2021/03/12 01:09:06;;;;;;;8.77;1.00;;;5.50;99.90;;;;;;5008727;28;21117;-70
2021/03/12 01:11:50;;;;;;;6.28;0.77;;;5.50;99.90;;;;;;5015972;28;20510;-71
2021/03/12 01:14:34;;;;;;;4.80;0.70;;;5.40;99.90;;;;;;5014985;28;20148;-71
2021/03/12 01:17:18;;;;;;;4.10;0.90;;;5.50;99.90;;;;;;5018718;28;20112;-70
2021/03/12 01:20:07;;;;;;;8.90;0.90;;;5.50;99.90;;;;;;5021918;28;20076;-70
2021/03/12 01:22:56;;;;;;;7.95;1.05;;;5.40;99.90;;;;;;5018510;28;20108;-70
2021/03/12 01:25:43;;;;;;;10.13;1.10;;;5.40;99.90;;;;;;5014452;28;20125;-70
2021/03/12 01:28:27;;;;;;;11.15;1.25;;;5.40;99.90;;;;;;5015532;28;20048;-70
2021/03/12 01:31:12;;;;;;;6.45;1.52;;;5.40;99.90;;;;;;5020629;28;20596;-70
2021/03/12 01:33:56;;;;;;;12.50;1.00;;;5.40;99.90;;;;;;5013700;28;20060;-70
2021/03/12 01:36:40;;;;;;;7.72;0.75;;;5.30;99.90;;;;;;5017939;28;20068;-71
2021/03/12 01:39:24;;;;;;;9.60;1.10;;;5.30;99.90;;;;;;5015664;28;20075;-70
2021/03/12 01:42:08;;;;;;;5.22;0.98;;;5.30;99.90;;;;;;5010085;28;20096;-70
2021/03/12 01:44:53;;;;;;;3.25;0.80;;;5.20;99.90;;;;;;5009235;28;20131;-71
2021/03/12 01:47:37;;;;;;;4.45;0.60;;;5.20;99.90;;;;;;5022872;28;20044;-71
2021/03/12 01:50:22;;;;;;;8.30;0.88;;;5.10;99.90;;;;;;5018972;28;20303;-70
2021/03/12 01:53:11;;;;;;;3.95;0.70;;;5.10;99.90;;;;;;5015957;28;20765;-70
2021/03/12 01:55:56;;;;;;;10.25;0.93;;;5.10;99.90;;;;;;5022572;28;20048;-70
2021/03/12 01:58:40;;;;;;;12.45;2.03;;;5.10;99.90;;;;;;5016482;28;20521;-70
2021/03/12 02:01:25;;;;;;;9.05;1.17;;;5.10;99.90;;;;;;5018364;28;20052;-70
2021/03/12 02:04:09;;;;;;;10.45;1.33;;;5.10;99.90;;;;;;5017284;28;20090;-71
2021/03/12 02:06:54;;;;;;;6.90;0.82;;;5.10;99.90;;;;;;5012909;28;20092;-71
2021/03/12 02:09:38;;;;;;;9.90;1.75;;;5.20;99.90;;;;;;5010609;28;20107;-70
2021/03/12 02:12:31;;;;;;;5.07;0.80;;;5.20;99.90;;;;;;5004365;28;20195;-70
2021/03/12 02:15:22;;;;;;;5.88;1.08;;;5.10;99.90;;;;;;5006415;28;20182;-71
2021/03/12 02:18:12;;;;;;;6.65;0.85;;;5.00;99.90;;;;;;5009369;28;20470;-71
2021/03/12 02:21:18;;;;;;;5.75;0.80;;;5.10;99.90;;;;;;5014384;28;20039;-71
2021/03/12 02:24:33;;;;;;;8.25;1.10;;;5.00;99.90;;;;;;5010259;28;20120;-71
2021/03/12 02:27:20;;;;;;;7.57;1.15;;;5.10;99.90;;;;;;5010765;28;20060;-71
2021/03/12 02:30:07;;;;;;;10.38;1.40;;;5.10;99.90;;;;;;5005648;28;20056;-69
2021/03/12 02:32:52;;;;;;;7.13;0.90;;;5.10;99.90;;;;;;5012669;28;20414;-69
2021/03/12 02:35:38;;;;;;;9.27;1.13;;;5.10;99.90;;;;;;5005823;28;20060;-69
2021/03/12 02:38:24;;;;;;;6.50;1.08;;;5.20;99.90;;;;;;5008150;28;20089;-69
2021/03/12 02:41:10;;;;;;;10.25;1.13;;;5.20;99.90;;;;;;5011471;28;20040;-69
2021/03/12 02:43:55;;;;;;;8.95;1.15;;;5.20;99.90;;;;;;5014631;28;20567;-69
2021/03/12 02:46:40;;;;;;;3.53;1.17;;;5.10;99.90;;;;;;5018603;28;20125;-69
2021/03/12 02:49:26;;;;;;;10.20;1.33;;;5.10;99.90;;;;;;5014824;28;20044;-69
2021/03/12 02:52:11;;;;;;;8.18;0.90;;;5.20;99.90;;;;;;5021492;28;20045;-69
2021/03/12 02:54:56;;;;;;;11.38;1.08;;;5.20;99.90;;;;;;5016062;28;20106;-69
2021/03/12 02:57:41;;;;;;;9.60;0.95;;;5.10;99.90;;;;;;5015473;28;20867;-69
2021/03/12 03:00:25;;;;;;;8.15;1.00;;;5.20;99.90;;;;;;5015801;28;20048;-69
2021/03/12 03:03:10;;;;;;;5.30;0.80;;;5.10;99.90;;;;;;5024293;28;20136;-69
2021/03/12 03:05:55;;;;;;;9.27;0.95;;;5.10;99.90;;;;;;5010969;28;20510;-68
2021/03/12 03:08:44;;;;;;;6.57;0.80;;;5.10;99.90;;;;;;5016394;28;20204;-71
2021/03/12 03:11:29;;;;;;;9.90;0.90;;;5.20;99.90;;;;;;5019926;28;20080;-68
2021/03/12 03:14:15;;;;;;;7.57;1.30;;;5.20;99.90;;;;;;5020801;28;20052;-70
2021/03/12 03:17:03;;;;;;;7.22;1.35;;;5.10;99.90;;;;;;5025118;28;20044;-69
2021/03/12 03:19:49;;;;;;;8.15;0.95;;;5.20;99.90;;;;;;5019957;28;20083;-69
2021/03/12 03:22:33;;;;;;;5.18;0.80;;;5.30;99.90;;;;;;5028724;28;20045;-69
2021/03/12 03:25:18;;;;;;;5.78;0.75;;;5.20;99.90;;;;;;5026890;28;20057;-70
2021/03/12 03:28:02;;;;;;;5.95;0.77;;;5.30;99.90;;;;;;5016229;28;20049;-70
2021/03/12 03:30:47;;;;;;;6.63;0.95;;;5.30;99.90;;;;;;5029601;28;20170;-70
2021/03/12 03:33:32;;;;;;;9.27;1.00;;;5.20;99.90;;;;;;5023715;28;20048;-69
2021/03/12 03:36:17;;;;;;;6.32;1.30;;;5.20;99.90;;;;;;5023378;28;20036;-70
2021/03/12 03:39:02;;;;;;;6.25;0.68;;;5.20;99.90;;;;;;5021277;28;20521;-70
2021/03/12 03:41:49;;;;;;;7.82;0.88;;;5.10;99.90;;;;;;5034379;28;20049;-70
2021/03/12 03:44:35;;;;;;;11.18;1.00;;;5.10;99.90;;;;;;5026458;28;20454;-69
2021/03/12 03:47:21;;;;;;;5.55;1.00;;;5.10;99.90;;;;;;5022685;28;20454;-70
2021/03/12 03:50:06;;;;;;;13.15;1.42;;;5.00;99.90;;;;;;5020213;28;20076;-69
2021/03/12 03:52:51;;;;;;;7.28;0.90;;;5.00;99.90;;;;;;5018580;28;20040;-69
2021/03/12 03:55:37;;;;;;;11.30;0.93;;;5.10;99.90;;;;;;5022309;28;20085;-70
2021/03/12 03:58:21;;;;;;;7.32;1.02;;;5.10;99.90;;;;;;5016856;28;20049;-69
2021/03/12 04:01:06;;;;;;;8.32;1.25;;;5.10;99.90;;;;;;5019146;28;20103;-71
2021/03/12 04:03:55;;;;;;;4.35;0.80;;;5.20;99.90;;;;;;5022889;28;20049;-70
2021/03/12 04:06:42;;;;;;;12.65;1.00;;;5.20;99.90;;;;;;5020047;28;20080;-69
2021/03/12 04:09:27;;;;;;;14.63;1.92;;;5.30;99.90;;;;;;5018223;28;20056;-70
2021/03/12 04:12:13;;;;;;;5.55;1.23;;;5.20;99.90;;;;;;5025211;28;20041;-70
2021/03/12 04:14:57;;;;;;;5.57;1.50;;;5.10;99.90;;;;;;5022778;28;20534;-69
2021/03/12 04:17:43;;;;;;;9.48;1.50;;;5.20;99.90;;;;;;5025532;28;20125;-70
2021/03/12 04:20:29;;;;;;;13.38;1.67;;;5.20;99.90;;;;;;5012805;28;20474;-69
2021/03/12 04:23:14;;;;;;;11.85;2.33;;;5.10;99.90;;;;;;5019425;28;20037;-70
2021/03/12 04:25:59;;;;;;;6.25;1.00;;;5.00;99.90;;;;;;5018237;28;20144;-69
2021/03/12 04:28:44;;;;;;;8.27;1.02;;;4.90;99.90;;;;;;5025834;28;20119;-69
2021/03/12 04:31:28;;;;;;;9.27;1.27;;;4.90;99.90;;;;;;5013706;28;20045;-70
2021/03/12 04:34:13;;;;;;;11.07;1.67;;;4.90;99.90;;;;;;5013872;28;20100;-70
2021/03/12 04:36:57;;;;;;;6.85;1.05;;;4.80;99.90;;;;;;5023012;28;20041;-70
2021/03/12 04:39:42;;;;;;;3.95;0.80;;;4.80;99.90;;;;;;5021590;28;20118;-70
2021/03/12 04:42:27;;;;;;;8.50;1.10;;;4.80;99.90;;;;;;5018177;28;20118;-70
2021/03/12 04:45:13;;;;;;;10.48;1.40;;;4.80;99.90;;;;;;5027962;28;20052;-70
2021/03/12 04:47:58;;;;;;;9.50;1.15;;;4.80;99.90;;;;;;5021738;28;20044;-69
2021/03/12 04:50:43;;;;;;;11.52;1.15;;;4.80;99.90;;;;;;5017811;28;20128;-69
2021/03/12 04:53:31;;;;;;;7.85;1.52;;;4.80;99.90;;;;;;5014069;28;20049;-70
2021/03/12 04:56:15;;;;;;;9.13;1.10;;;4.90;99.90;;;;;;5015409;28;20056;-70
2021/03/12 04:59:01;;;;;;;3.92;0.80;;;4.90;99.90;;;;;;5016179;28;20045;-70
2021/03/12 05:01:47;;;;;;;8.90;1.45;;;4.80;99.90;;;;;;5023335;28;20063;-70
2021/03/12 05:04:32;;;;;;;9.07;1.33;;;4.90;99.90;;;;;;5015457;28;20060;-69
2021/03/12 05:07:19;;;;;;;15.85;2.05;;;4.90;99.90;;;;;;5027830;28;20048;-70
2021/03/12 05:10:06;;;;;;;11.32;1.15;;;4.80;99.90;;;;;;5015958;28;20052;-70
2021/03/12 05:12:51;;;;;;;10.77;1.05;;;4.90;99.90;;;;;;5020379;28;21916;-70
2021/03/12 05:15:35;;;;;;;5.25;1.33;;;4.90;99.90;;;;;;5024449;28;20445;-70
2021/03/12 05:18:20;;;;;;;6.72;0.93;;;4.80;99.90;;;;;;5021539;28;20076;-69
2021/03/12 05:21:04;;;;;;;6.57;1.25;;;4.90;99.90;;;;;;5017824;28;20036;-70
2021/03/12 05:23:48;;;;;;;11.43;1.38;;;4.90;99.90;;;;;;5019782;28;20044;-70
2021/03/12 05:26:33;;;;;;;6.63;1.05;;;5.00;99.90;;;;;;5023719;28;20048;-70
2021/03/12 05:29:17;;;;;;;11.25;1.63;;;4.90;99.90;;;;;;5021805;28;20106;-70
2021/03/12 05:32:02;;;;;;;5.50;0.60;;;4.90;99.90;;;;;;5021340;28;20567;-70
2021/03/12 05:34:47;;;;;;;11.93;1.27;;;4.90;99.90;;;;;;5017459;28;20060;-70
2021/03/12 05:37:31;;;;;;;9.80;2.25;;;4.90;99.90;;;;;;5010000;28;20147;-69
2021/03/12 05:40:15;;;;;;;12.32;2.50;;;4.90;99.90;;;;;;5032280;28;20343;-70
2021/03/12 05:43:01;;;;;;;3.70;0.70;;;5.00;99.90;;;;;;5022448;28;20450;-70
2021/03/12 05:45:46;;;;;;;12.50;1.00;;;5.00;99.90;;;;;;5026755;28;20065;-70
2021/03/12 05:48:30;;;;;;;6.95;2.08;;;5.00;99.90;;;;;;5016030;28;20585;-70
2021/03/12 05:51:15;;;;;;;6.47;0.90;;;4.90;99.90;;;;;;5020412;28;20051;-70
2021/03/12 05:54:04;;;;;;;9.15;0.93;;;4.90;99.90;;;;;;5020165;28;20095;-70
2021/03/12 05:56:49;;;;;;;5.60;0.73;;;4.90;99.90;;;;;;5024510;28;20383;-69
2021/03/12 05:59:33;;;;;;;16.88;1.30;;;4.90;99.90;;;;;;5027025;28;20044;-70
2021/03/12 06:02:18;;;;;;;8.05;1.00;;;4.80;99.90;;;;;;5026688;28;20504;-69
2021/03/12 06:05:05;;;;;;;6.80;1.10;;;4.80;99.90;;;;;;5022653;28;20063;-69
2021/03/12 06:07:50;;;;;;;9.23;1.08;;;4.80;99.90;;;;;;5025723;28;20055;-69
2021/03/12 06:10:34;;;;;;;8.10;1.17;;;4.80;99.90;;;;;;5030483;28;20051;-70
2021/03/12 06:13:18;;;;;;;11.35;1.50;;;4.60;99.90;;;;;;5027891;28;20080;-70
2021/03/12 06:16:24;;;;;;;8.25;1.10;;;4.60;99.90;;;;;;5023982;28;20065;-70
2021/03/12 06:19:19;;;;;;;9.95;1.55;;;4.60;99.90;;;;;;5023842;28;20541;-70
2021/03/12 06:22:07;;;;;;;8.57;1.40;;;4.60;99.90;;;;;;5015908;28;20467;-70
2021/03/12 06:24:52;;;;;;;8.45;1.42;;;4.70;99.90;;;;;;5011862;28;20065;-70
2021/03/12 06:27:37;;;;;;;10.93;1.40;;;4.70;99.90;;;;;;5015897;28;20053;-70
2021/03/12 06:30:25;;;;;;;12.40;1.27;;;4.70;99.90;;;;;;5033011;28;20525;-70
2021/03/12 06:33:27;;;;;;;7.07;1.30;;;4.70;99.90;;;;;;5021047;28;20552;-70
2021/03/12 06:36:28;;;;;;;3.92;0.60;;;4.80;99.90;;;;;;5010711;28;20084;-70
2021/03/12 06:39:13;;;;;;;8.70;1.02;;;4.80;99.90;;;;;;5022210;28;20168;-70
2021/03/12 06:41:57;;;;;;;5.78;1.05;;;5.00;99.90;;;;;;5010415;28;20036;-70
2021/03/12 06:44:41;;;;;;;7.82;1.40;;;4.90;99.90;;;;;;5023711;28;20092;-70
2021/03/12 06:47:25;;;;;;;5.57;1.35;;;4.70;99.90;;;;;;5022594;28;20064;-70
2021/03/12 06:50:10;;;;;;;9.07;0.95;;;4.50;99.90;;;;;;5014281;28;20089;-70
2021/03/12 06:52:54;;;;;;;8.48;2.15;;;4.40;99.90;;;;;;5019403;28;20088;-70
2021/03/12 06:55:45;;;;;;;6.57;1.00;;;4.40;99.90;;;;;;5028974;28;20195;-69
2021/03/12 06:58:31;;;;;;;7.15;1.20;;;4.50;99.90;;;;;;5023260;28;20159;-70
2021/03/12 07:01:20;;;;;;;5.93;1.52;;;4.50;99.90;;;;;;5028111;28;20121;-70
2021/03/12 07:04:15;;;;;;;10.52;0.98;;;4.70;99.90;;;;;;5015258;28;20575;-70
2021/03/12 07:07:00;;;;;;;12.07;1.20;;;4.80;99.90;;;;;;5022219;28;20044;-70
2021/03/12 07:09:57;;;;;;;11.80;1.33;;;4.80;99.90;;;;;;5024053;28;20123;-70
2021/03/12 07:12:51;;;;;;;7.88;1.05;;;4.90;99.90;;;;;;5025180;28;20072;-70
2021/03/12 07:15:36;;;;;;;10.20;1.10;;;5.10;99.90;;;;;;5026478;28;20305;-70
2021/03/12 07:18:22;;;;;;;9.73;1.23;;;5.20;99.90;;;;;;5030390;28;20057;-69
2021/03/12 07:21:07;;;;;;;8.05;1.38;;;5.30;99.90;;;;;;5026903;28;20048;-69
2021/03/12 07:23:56;;;;;;;15.10;1.40;;;5.40;99.90;;;;;;5021854;28;20769;-70
2021/03/12 07:26:46;;;;;;;13.85;2.60;;;5.50;99.90;;;;;;5021653;28;20064;-70
2021/03/12 07:29:32;;;;;;;12.68;1.70;;;5.40;99.90;;;;;;5022909;28;20087;-70
2021/03/12 07:32:23;;;;;;;9.60;1.52;;;5.40;99.90;;;;;;5029631;28;20421;-70
2021/03/12 07:35:07;;;;;;;9.85;1.98;;;5.40;99.90;;;;;;5020476;28;20049;-69
2021/03/12 07:37:53;;;;;;;6.75;1.65;;;5.40;99.90;;;;;;5032066;28;20075;-70
2021/03/12 07:40:38;;;;;;;12.25;2.20;;;5.40;99.90;;;;;;5026104;28;20406;-70
2021/03/12 07:43:23;;;;;;;11.02;2.38;;;5.60;99.90;;;;;;5020409;28;20095;-70
2021/03/12 07:46:09;;;;;;;13.75;2.58;;;5.50;99.90;;;;;;5028475;28;20121;-69
2021/03/12 07:48:53;;;;;;;13.38;2.47;;;5.60;99.90;;;;;;5022291;28;20060;-70
2021/03/12 07:51:47;;;;;;;9.02;1.95;;;5.60;99.90;;;;;;5029537;28;20087;-69
2021/03/12 07:54:37;;;;;;;11.73;1.67;;;5.70;99.90;;;;;;5023775;28;20069;-70
2021/03/12 07:57:38;;;;;;;11.15;1.55;;;5.60;99.90;;;;;;5025183;28;20111;-69
2021/03/12 08:00:22;;;;;;;12.30;2.08;;;5.70;99.90;;;;;;5018622;28;20151;-70
2021/03/12 08:03:07;;;;;;;11.57;2.42;;;5.90;99.90;;;;;;5023180;28;20053;-70
2021/03/12 08:05:52;;;;;;;18.02;1.83;;;5.90;99.90;;;;;;5023768;28;20048;-70
2021/03/12 08:08:38;;;;;;;8.20;0.90;;;5.90;99.90;;;;;;5027780;28;20056;-70
2021/03/12 08:11:27;;;;;;;6.20;1.02;;;6.10;99.90;;;;;;5024941;28;20051;-70
2021/03/12 08:14:13;;;;;;;12.05;2.33;;;6.30;99.90;;;;;;5022731;28;20044;-70
2021/03/12 08:16:58;;;;;;;13.30;1.50;;;6.60;99.90;;;;;;5028723;28;20072;-70
2021/03/12 08:19:46;;;;;;;12.00;1.40;;;6.60;99.90;;;;;;5026947;28;20047;-70
2021/03/12 08:22:31;;;;;;;11.10;1.50;;;6.40;99.90;;;;;;5022352;28;20052;-70
2021/03/12 08:25:40;;;;;;;11.20;1.15;;;6.40;99.90;;;;;;5019450;28;20040;-70
2021/03/12 08:28:27;;;;;;;14.25;1.45;;;6.30;99.90;;;;;;5024368;28;20184;-70
2021/03/12 08:31:11;;;;;;;11.23;1.55;;;6.30;99.90;;;;;;5029559;28;20048;-69
2021/03/12 08:33:55;;;;;;;15.70;2.10;;;6.60;99.90;;;;;;5017463;28;20049;-70
2021/03/12 08:36:39;;;;;;;11.80;1.40;;;6.90;99.90;;;;;;5017169;28;20084;-70
2021/03/12 08:39:26;;;;;;;7.35;1.15;;;6.90;99.90;;;;;;5015599;28;20044;-70
2021/03/12 08:42:12;;;;;;;9.48;1.42;;;6.80;99.90;;;;;;5004753;28;20056;-70
2021/03/12 08:44:57;;;;;;;16.10;2.03;;;6.60;99.90;;;;;;5024905;28;20052;-69
2021/03/12 08:47:41;;;;;;;9.02;2.30;;;6.70;99.90;;;;;;5012352;28;20339;-69
2021/03/12 08:50:25;;;;;;;11.50;1.58;;;6.90;99.90;;;;;;5010457;28;20073;-70
2021/03/12 08:53:13;;;;;;;17.13;1.52;;;6.80;99.90;;;;;;5011956;28;20125;-70
2021/03/12 08:55:59;;;;;;;10.43;1.30;;;6.90;99.90;;;;;;5024135;28;20040;-70
2021/03/12 08:58:44;;;;;;;15.80;1.40;;;6.90;99.90;;;;;;5030308;28;20469;-70
2021/03/12 09:01:30;;;;;;;8.13;1.15;;;7.00;99.90;;;;;;5018542;28;20111;-70
2021/03/12 09:04:14;;;;;;;15.02;1.45;;;7.00;99.90;;;;;;5013145;28;20068;-70
2021/03/12 09:07:02;;;;;;;14.98;2.03;;;7.00;99.90;;;;;;5010770;28;20556;-70
2021/03/12 09:09:46;;;;;;;8.77;1.60;;;6.90;99.90;;;;;;5024386;28;20068;-70
2021/03/12 09:12:32;;;;;;;11.80;1.45;;;7.00;99.90;;;;;;5011002;28;20124;-70
2021/03/12 09:15:27;;;;;;;18.75;2.58;;;6.90;99.90;;;;;;5026687;28;20103;-70
2021/03/12 09:18:31;;;;;;;11.68;1.30;;;7.40;99.90;;;;;;5021960;28;20056;-70
2021/03/12 09:21:20;;;;;;;9.80;1.63;;;8.00;99.90;;;;;;5031969;28;20063;-70
2021/03/12 09:24:05;;;;;;;10.98;1.50;;;7.70;99.90;;;;;;5033229;28;20170;-70
2021/03/12 09:26:49;;;;;;;5.35;1.20;;;7.70;99.90;;;;;;5030427;28;20409;-70
2021/03/12 09:29:37;;;;;;;8.95;1.20;;;7.70;99.90;;;;;;5027763;28;20084;-70
2021/03/12 09:32:21;;;;;;;9.45;1.67;;;7.40;99.90;;;;;;5036817;28;20056;-70
2021/03/12 09:35:18;;;;;;;10.70;1.73;;;8.20;99.90;;;;;;5020767;28;20180;-70
2021/03/12 09:38:03;;;;;;;7.32;2.28;;;9.00;99.90;;;;;;5030580;28;20465;-70
2021/03/12 09:40:47;;;;;;;8.90;1.48;;;8.30;99.90;;;;;;5026923;28;20080;-70
2021/03/12 09:43:31;;;;;;;9.02;1.50;;;7.90;99.90;;;;;;5022532;28;20045;-70
2021/03/12 09:46:16;;;;;;;18.48;1.90;;;7.60;99.90;;;;;;5021928;28;20115;-70
2021/03/12 09:49:01;;;;;;;15.85;1.95;;;7.00;99.90;;;;;;5023693;28;20051;-70
2021/03/12 09:51:49;;;;;;;15.50;1.90;;;6.70;99.90;;;;;;5036072;28;20043;-69
2021/03/12 09:54:33;;;;;;;8.20;1.50;;;6.40;99.90;;;;;;5044818;28;21058;-70
2021/03/12 09:57:19;;;;;;;11.55;1.60;;;6.20;99.90;;;;;;5037723;28;20121;-69
2021/03/12 10:00:06;;;;;;;13.88;1.33;;;6.20;99.90;;;;;;5032194;28;20282;-70
2021/03/12 10:02:57;;;;;;;16.50;1.38;;;6.00;99.90;;;;;;5030598;28;20059;-70
2021/03/12 10:05:42;;;;;;;9.40;1.67;;;6.00;99.90;;;;;;5032588;28;20516;-70
2021/03/12 10:08:26;;;;;;;16.15;1.55;;;6.30;99.90;;;;;;5033262;28;20107;-70
2021/03/12 10:11:10;;;;;;;11.82;1.20;;;6.20;99.90;;;;;;5029979;28;20052;-70
2021/03/12 10:13:54;;;;;;;11.70;1.67;;;6.00;99.90;;;;;;5028603;28;20049;-70
2021/03/12 10:16:38;;;;;;;9.18;1.25;;;5.70;99.90;;;;;;5041225;28;20084;-70
2021/03/12 10:19:22;;;;;;;6.85;1.10;;;5.50;99.90;;;;;;5021985;28;20096;-70
2021/03/12 10:22:17;;;;;;;9.68;1.25;;;5.30;99.90;;;;;;5040622;28;21623;-69
2021/03/12 10:25:08;;;;;;;15.10;1.35;;;5.30;99.90;;;;;;5020457;28;20868;-69
2021/03/12 10:28:00;;;;;;;12.40;1.05;;;5.30;99.90;;;;;;5029344;28;20041;-70
2021/03/12 10:30:50;;;;;;;9.93;1.20;;;5.30;99.90;;;;;;5032066;28;20056;-69
2021/03/12 10:33:36;;;;;;;12.80;1.95;;;5.40;99.90;;;;;;5025722;28;20566;-69
2021/03/12 10:36:20;;;;;;;8.45;1.52;;;5.60;99.90;;;;;;5034851;28;20040;-69
2021/03/12 10:39:04;;;;;;;7.90;1.52;;;5.70;99.90;;;;;;5031642;28;20040;-69
2021/03/12 10:42:01;;;;;;;15.48;2.30;;;5.70;99.90;;;;;;5036236;28;20129;-69
2021/03/12 10:44:56;;;;;;;5.78;0.68;;;5.90;99.90;;;;;;5045667;28;20362;-69
2021/03/12 10:47:56;;;;;;;6.28;1.10;;;6.00;99.90;;;;;;5042791;28;20395;-69
2021/03/12 10:50:40;;;;;;;8.85;1.63;;;5.90;99.90;;;;;;5032928;28;20052;-69
2021/03/12 10:53:24;;;;;;;9.75;1.58;;;5.60;99.90;;;;;;5017208;28;20100;-68
2021/03/12 10:56:09;;;;;;;10.95;1.13;;;5.40;99.90;;;;;;5021460;28;20048;-68
2021/03/12 10:58:55;;;;;;;12.38;1.42;;;5.40;99.90;;;;;;5022556;28;20156;-69
2021/03/12 11:01:41;;;;;;;15.90;1.63;;;5.60;99.90;;;;;;5022834;28;20037;-69
2021/03/12 11:04:25;;;;;;;14.73;1.88;;;5.80;99.90;;;;;;5021597;28;20040;-69
2021/03/12 11:07:10;;;;;;;8.15;1.73;;;6.00;99.90;;;;;;5017059;28;20133;-69
2021/03/12 11:09:54;;;;;;;13.07;2.05;;;6.20;99.90;;;;;;5028511;28;20049;-69
2021/03/12 11:12:42;;;;;;;17.85;2.00;;;6.40;99.90;;;;;;5016866;28;20095;-68
2021/03/12 11:15:26;;;;;;;12.32;1.38;;;6.70;99.90;;;;;;5023271;28;20632;-68
2021/03/12 11:18:10;;;;;;;16.77;1.67;;;7.10;99.90;;;;;;5023896;28;20060;-68
2021/03/12 11:20:54;;;;;;;8.98;1.23;;;7.30;99.90;;;;;;5015415;28;20044;-69
2021/03/12 11:23:39;;;;;;;14.88;1.92;;;7.50;99.90;;;;;;5035203;28;20048;-69
2021/03/12 11:26:24;;;;;;;9.38;1.52;;;7.70;99.90;;;;;;5033832;28;20099;-69
2021/03/12 11:29:09;;;;;;;10.05;1.48;;;7.80;99.90;;;;;;5032012;28;20048;-69
2021/03/12 11:31:54;;;;;;;15.48;2.03;;;8.50;99.90;;;;;;5031245;28;20175;-69
2021/03/12 11:34:39;;;;;;;10.18;1.30;;;8.60;99.90;;;;;;5044756;28;20068;-68
2021/03/12 11:37:22;;;;;;;9.27;1.60;;;8.60;99.90;;;;;;5042468;28;20124;-69
2021/03/12 11:40:08;;;;;;;8.25;1.25;;;8.50;99.90;;;;;;5030726;28;20391;-69
2021/03/12 11:42:53;;;;;;;12.13;1.50;;;8.50;99.90;;;;;;5031377;28;20043;-68
2021/03/12 11:45:37;;;;;;;9.20;1.75;;;8.20;99.90;;;;;;5016767;28;20517;-69
2021/03/12 11:48:22;;;;;;;13.50;1.80;;;8.20;99.90;;;;;;5015325;28;20056;-69
2021/03/12 11:51:06;;;;;;;11.98;1.60;;;7.90;99.90;;;;;;5027208;28;20044;-68
2021/03/12 11:53:50;;;;;;;11.75;1.85;;;7.60;99.90;;;;;;5026180;28;20140;-69
2021/03/12 11:56:35;;;;;;;17.13;1.95;;;7.60;99.90;;;;;;5021396;28;20517;-69
2021/03/12 11:59:19;;;;;;;11.32;2.33;;;7.90;99.90;;;;;;5030713;28;20044;-69
2021/03/12 12:02:03;;;;;;;9.90;1.85;;;8.20;99.90;;;;;;5024301;28;20041;-69
2021/03/12 12:04:48;;;;;;;13.27;1.83;;;8.30;99.90;;;;;;5016126;28;20072;-69
2021/03/12 12:07:33;;;;;;;7.65;1.25;;;8.40;99.90;;;;;;5036085;28;20051;-69
2021/03/12 12:10:18;;;;;;;12.48;1.85;;;8.30;99.90;;;;;;5042790;28;20102;-69
2021/03/12 12:13:04;;;;;;;8.63;1.40;;;8.40;99.90;;;;;;5038229;28;20053;-69
2021/03/12 12:15:49;;;;;;;10.02;1.80;;;8.30;99.90;;;;;;5033334;28;20065;-69
2021/03/12 12:18:32;;;;;;;14.05;1.60;;;8.00;99.90;;;;;;5026207;28;20240;-69
2021/03/12 12:21:17;;;;;;;10.88;1.80;;;7.80;99.90;;;;;;5017575;28;20068;-69
2021/03/12 12:24:01;;;;;;;14.18;1.98;;;7.60;99.90;;;;;;5026340;28;20410;-69
2021/03/12 12:26:45;;;;;;;8.65;1.60;;;7.80;99.90;;;;;;5006269;28;20502;-69
2021/03/12 12:29:29;;;;;;;15.23;1.50;;;8.10;99.90;;;;;;5023827;28;20054;-69
2021/03/12 12:32:13;;;;;;;16.02;1.70;;;8.20;99.90;;;;;;5024705;28;20040;-70
2021/03/12 12:34:58;;;;;;;10.20;2.00;;;8.20;99.90;;;;;;5021758;28;20422;-70
2021/03/12 12:37:42;;;;;;;7.25;1.45;;;8.40;99.90;;;;;;5022914;28;20036;-70
2021/03/12 12:40:26;;;;;;;11.30;1.13;;;8.50;99.90;;;;;;5020964;28;20056;-70
2021/03/12 12:43:10;;;;;;;16.45;1.85;;;8.70;99.90;;;;;;5032117;28;20044;-70
2021/03/12 12:45:54;;;;;;;9.65;1.00;;;8.90;99.90;;;;;;5028808;28;20423;-69
2021/03/12 12:48:38;;;;;;;7.50;1.42;;;9.00;99.90;;;;;;5021045;28;20510;-68
2021/03/12 12:51:22;;;;;;;7.85;1.80;;;9.40;99.90;;;;;;5025418;28;20053;-69
2021/03/12 12:54:06;;;;;;;5.85;1.27;;;9.70;99.90;;;;;;5023577;28;20122;-69
2021/03/12 12:56:51;;;;;;;7.82;0.90;;;10.00;99.90;;;;;;5019476;28;20247;-70
2021/03/12 12:59:35;;;;;;;7.43;1.23;;;9.80;99.90;;;;;;5024318;28;20076;-69
2021/03/12 13:02:19;;;;;;;14.18;1.60;;;9.70;99.90;;;;;;5029068;28;20087;-69
2021/03/12 13:05:04;;;;;;;10.10;1.50;;;9.60;99.90;;;;;;5031657;28;20060;-69
2021/03/12 13:07:49;;;;;;;11.18;1.65;;;9.20;99.90;;;;;;5014659;28;20567;-71
2021/03/12 13:10:34;;;;;;;10.23;1.83;;;9.30;99.90;;;;;;5020989;28;20099;-69
2021/03/12 13:13:19;;;;;;;12.05;1.25;;;9.20;99.90;;;;;;5010271;28;20068;-68
2021/03/12 13:16:03;;;;;;;14.43;1.65;;;8.90;99.90;;;;;;5022749;28;20053;-70
2021/03/12 13:18:47;;;;;;;10.20;1.63;;;8.90;99.90;;;;;;5020053;28;20041;-69
2021/03/12 13:21:31;;;;;;;13.45;1.83;;;9.10;99.90;;;;;;5012984;28;20542;-69
2021/03/12 13:24:16;;;;;;;14.48;1.50;;;9.20;99.90;;;;;;5017233;28;20095;-69
2021/03/12 13:27:00;;;;;;;10.57;1.58;;;9.10;99.90;;;;;;5013830;28;20044;-69
2021/03/12 13:29:44;;;;;;;11.90;1.30;;;9.00;99.90;;;;;;5011715;28;20057;-69
2021/03/12 13:32:29;;;;;;;10.57;1.30;;;9.00;99.90;;;;;;5022525;28;20064;-69
2021/03/12 13:35:15;;;;;;;10.02;1.52;;;9.00;99.90;;;;;;5018536;28;20085;-69
2021/03/12 13:38:01;;;;;;;10.48;1.13;;;9.00;99.90;;;;;;5018647;28;20046;-70
2021/03/12 13:40:45;;;;;;;13.23;2.00;;;9.00;99.90;;;;;;5022010;28;20082;-70
2021/03/12 13:43:30;;;;;;;6.20;1.27;;;8.90;99.90;;;;;;5014706;28;20037;-69
2021/03/12 13:46:14;;;;;;;11.75;1.52;;;8.70;99.90;;;;;;5011624;28;20156;-70
2021/03/12 13:48:59;;;;;;;13.77;1.80;;;8.60;99.90;;;;;;5017563;28;20069;-69
2021/03/12 13:51:42;;;;;;;13.32;1.85;;;8.20;99.90;;;;;;5026525;28;20550;-69
2021/03/12 13:54:27;;;;;;;13.57;1.73;;;8.30;99.90;;;;;;5029966;28;20053;-69
2021/03/12 13:57:11;;;;;;;8.63;1.73;;;10.20;99.90;;;;;;5018400;28;20529;-69
2021/03/12 13:59:55;;;;;;;10.52;1.80;;;11.60;99.90;;;;;;5014628;28;20395;-69
2021/03/12 14:02:43;;;;;;;8.52;1.65;;;11.60;99.90;;;;;;5023410;28;20536;-69
2021/03/12 14:05:27;;;;;;;8.68;1.95;;;11.30;99.90;;;;;;5027958;28;20444;-69
2021/03/12 14:08:12;;;;;;;11.82;1.70;;;10.30;99.90;;;;;;5017780;28;20095;-69
2021/03/12 14:10:56;;;;;;;7.00;1.02;;;10.90;99.90;;;;;;5015624;28;20036;-69
2021/03/12 14:13:40;;;;;;;9.70;1.75;;;10.40;99.90;;;;;;5024513;28;20044;-69
2021/03/12 14:16:24;;;;;;;12.45;2.83;;;9.90;99.90;;;;;;5017689;28;20100;-69
2021/03/12 14:19:09;;;;;;;15.38;2.95;;;9.70;99.90;;;;;;5020011;28;20041;-69
2021/03/12 14:21:53;;;;;;;9.20;1.70;;;9.80;99.90;;;;;;5024045;28;20588;-69
2021/03/12 14:24:37;;;;;;;10.73;1.73;;;10.60;99.90;;;;;;5010561;28;20103;-69
2021/03/12 14:27:22;;;;;;;6.40;1.27;;;10.50;99.90;;;;;;5013647;28;20092;-69
2021/03/12 14:30:07;;;;;;;14.50;2.70;;;10.90;99.90;;;;;;5012140;28;20498;-70